createdAt,value
2018-02-13T00:01:29.875Z,68.59
2018-02-13T00:03:57.440Z,68.90
2018-02-13T00:06:24.994Z,70.09
2018-02-13T00:08:52.599Z,70.37
2018-02-13T00:11:20.279Z,71.09
2018-02-13T00:13:47.896Z,70.62
2018-02-13T00:16:16.484Z,70.28
2018-02-13T00:18:44.066Z,69.77
2018-02-13T00:21:11.647Z,68.76
2018-02-13T00:23:39.774Z,68.14
2018-02-13T00:26:07.732Z,67.31
2018-02-13T00:28:35.284Z,67.54
2018-02-13T00:31:02.878Z,67.46
2018-02-13T00:33:30.470Z,66.65
2018-02-13T00:35:58.008Z,65.89
2018-02-13T00:38:25.595Z,65.43
2018-02-13T00:40:53.193Z,65.36
2018-02-13T00:43:20.735Z,65.23
2018-02-13T00:45:49.034Z,65.38
2018-02-13T00:48:16.611Z,65.22
2018-02-13T00:50:44.193Z,65.29
2018-02-13T00:53:11.734Z,65.17
2018-02-13T00:55:39.434Z,64.62
2018-02-13T00:58:06.988Z,64.37
2018-02-13T01:00:35.332Z,64.52
2018-02-13T01:03:02.910Z,65.00
2018-02-13T01:05:30.463Z,65.03
2018-02-13T01:07:58.052Z,64.88
2018-02-13T01:10:25.600Z,66.91
2018-02-13T01:12:53.191Z,68.45
2018-02-13T01:15:21.091Z,69.50
2018-02-13T01:17:48.629Z,71.05
2018-02-13T01:20:16.220Z,71.80
2018-02-13T01:22:43.811Z,72.31
2018-02-13T01:25:11.853Z,71.12
2018-02-13T01:27:39.448Z,70.06
2018-02-13T01:30:07.034Z,69.13
2018-02-13T01:32:34.588Z,68.11
2018-02-13T01:35:02.772Z,67.45
2018-02-13T01:37:30.357Z,67.01
2018-02-13T01:39:57.898Z,66.50
2018-02-13T01:42:25.936Z,66.17
2018-02-13T01:44:53.528Z,65.95
2018-02-13T01:47:21.124Z,65.41
2018-02-13T01:49:48.666Z,65.30
2018-02-13T01:52:16.201Z,65.20
2018-02-13T01:54:43.783Z,65.00
2018-02-13T01:57:11.418Z,64.94
2018-02-13T01:59:38.998Z,64.71
2018-02-13T02:02:06.584Z,65.49
2018-02-13T02:04:34.184Z,65.49
2018-02-13T02:07:02.340Z,65.44
2018-02-13T02:09:29.892Z,65.00
2018-02-13T02:11:57.488Z,64.84
2018-02-13T02:14:25.037Z,64.57
2018-02-13T02:54:02.765Z,62.90
2018-02-13T03:02:30.150Z,63.93
2018-02-13T03:04:57.730Z,64.21
2018-02-13T03:07:25.832Z,65.20
2018-02-13T03:09:53.375Z,65.21
2018-02-13T03:12:20.918Z,65.59
2018-02-13T03:14:48.516Z,65.46
2018-02-13T03:17:16.487Z,66.29
2018-02-13T03:19:44.071Z,65.98
2018-02-13T03:22:11.615Z,66.39
2018-02-13T03:24:39.475Z,66.50
2018-02-13T03:27:07.017Z,67.09
2018-02-13T03:29:34.864Z,66.70
2018-02-13T03:32:02.408Z,66.75
2018-02-13T03:34:29.990Z,67.10
2018-02-13T03:36:57.643Z,66.54
2018-02-13T03:39:25.299Z,65.70
2018-02-13T03:41:52.887Z,65.16
2018-02-13T03:44:20.824Z,65.18
2018-02-13T03:46:48.388Z,65.23
2018-02-13T03:49:16.726Z,65.01
2018-02-13T03:51:44.311Z,65.29
2018-02-13T03:54:11.860Z,65.75
2018-02-13T03:56:39.816Z,65.75
2018-02-13T03:59:07.404Z,65.87
2018-02-13T04:01:34.946Z,67.69
2018-02-13T04:04:02.479Z,69.28
2018-02-13T04:06:30.059Z,70.94
2018-02-13T04:08:57.647Z,70.50
2018-02-13T04:11:25.196Z,69.26
2018-02-13T04:13:53.734Z,67.87
2018-02-13T04:16:21.275Z,67.00
2018-02-13T04:18:48.872Z,66.63
2018-02-13T04:21:16.428Z,66.39
2018-02-13T04:23:43.982Z,65.93
2018-02-13T04:26:11.887Z,65.41
2018-02-13T04:28:39.443Z,65.12
2018-02-13T04:31:07.032Z,65.04
2018-02-13T04:33:35.107Z,64.99
2018-02-13T04:36:02.686Z,65.55
2018-02-13T04:38:30.265Z,65.72
2018-02-13T04:40:58.038Z,66.33
2018-02-13T04:43:25.587Z,69.33
2018-02-13T04:45:53.386Z,71.23
2018-02-13T04:48:21.256Z,72.95
2018-02-13T04:50:48.826Z,74.12
2018-02-13T04:53:16.488Z,74.91
2018-02-13T04:55:44.486Z,75.08
2018-02-13T04:58:12.819Z,75.00
2018-02-13T05:00:40.428Z,74.54
2018-02-13T05:03:07.966Z,73.89
2018-02-13T05:05:35.948Z,72.26
2018-02-13T05:08:04.499Z,71.09
2018-02-13T05:10:32.050Z,70.28
2018-02-13T05:12:59.659Z,69.37
2018-02-13T05:15:27.500Z,68.76
2018-02-13T05:17:55.100Z,67.91
2018-02-13T05:20:23.302Z,67.55
2018-02-13T05:22:50.895Z,68.40
2018-02-13T05:25:18.434Z,68.04
2018-02-13T05:27:46.014Z,68.58
2018-02-13T05:30:13.607Z,68.92
2018-02-13T05:32:41.954Z,67.76
2018-02-13T05:35:09.545Z,68.16
2018-02-13T05:37:37.104Z,68.44
2018-02-13T05:40:04.663Z,68.01
2018-02-13T05:42:32.247Z,68.13
2018-02-13T05:44:59.831Z,69.82
2018-02-13T05:47:27.438Z,70.93
2018-02-13T05:49:54.997Z,70.78
2018-02-13T05:52:23.530Z,70.43
2018-02-13T05:54:51.086Z,72.34
2018-02-13T05:57:18.687Z,73.04
2018-02-13T05:59:46.243Z,72.69
2018-02-13T06:02:13.836Z,70.97
2018-02-13T06:04:41.787Z,69.36
2018-02-13T06:07:09.384Z,68.14
2018-02-13T06:09:37.108Z,67.28
2018-02-13T06:12:04.699Z,66.88
2018-02-13T06:14:32.307Z,67.05
2018-02-13T06:16:59.852Z,66.40
2018-02-13T06:19:27.416Z,66.33
2018-02-13T06:21:55.930Z,65.77
2018-02-13T06:24:24.295Z,65.27
2018-02-13T06:26:51.846Z,64.94
2018-02-13T06:29:19.769Z,64.49
2018-02-13T06:31:47.332Z,63.61
2018-02-13T06:34:15.291Z,62.62
2018-02-13T06:36:43.364Z,61.95
2018-02-13T06:39:10.917Z,62.00
2018-02-13T06:41:38.507Z,61.84
2018-02-13T06:44:06.192Z,61.51
2018-02-13T06:46:33.806Z,61.16
2018-02-13T06:49:03.411Z,61.06
2018-02-13T06:51:32.854Z,61.01
2018-02-13T06:54:01.105Z,61.16
2018-02-13T06:56:30.409Z,61.21
2018-02-13T06:58:58.011Z,61.16
2018-02-13T07:01:26.827Z,60.88
2018-02-13T07:03:55.189Z,60.95
2018-02-13T07:06:22.778Z,60.86
2018-02-13T07:08:51.210Z,60.21
2018-02-13T07:11:19.705Z,59.98
2018-02-13T07:13:47.676Z,59.82
2018-02-13T07:16:15.251Z,59.76
2018-02-13T07:18:43.845Z,59.76
2018-02-13T07:21:11.476Z,59.80
2018-02-13T07:23:39.168Z,59.81
2018-02-13T07:26:06.877Z,59.81
2018-02-13T07:28:35.187Z,59.46
2018-02-13T07:31:03.302Z,59.08
2018-02-13T07:33:31.156Z,59.19
2018-02-13T07:35:59.659Z,59.20
2018-02-13T07:38:28.535Z,59.20
2018-02-13T07:40:56.087Z,59.36
2018-02-13T07:43:23.683Z,59.67
2018-02-13T07:45:51.241Z,59.27
2018-02-13T07:48:18.874Z,59.12
2018-02-13T07:50:46.716Z,59.18
2018-02-13T07:53:14.287Z,58.89
2018-02-13T07:55:41.945Z,58.44
2018-02-13T07:58:09.567Z,58.25
2018-02-13T08:00:37.164Z,58.15
2018-02-13T08:03:04.760Z,57.88
2018-02-13T08:05:32.854Z,57.43
2018-02-13T08:08:00.819Z,56.88
2018-02-13T08:10:28.829Z,57.58
2018-02-13T08:12:56.432Z,57.93
2018-02-13T08:15:23.978Z,57.50
2018-02-13T08:17:51.571Z,57.37
2018-02-13T08:20:20.373Z,56.64
2018-02-13T08:22:48.458Z,56.11
2018-02-13T08:25:16.230Z,55.85
2018-02-13T08:27:43.838Z,56.33
2018-02-13T08:30:11.860Z,56.58
2018-02-13T08:32:39.405Z,56.01
2018-02-13T08:35:07.063Z,55.58
2018-02-13T08:37:34.655Z,55.77
2018-02-13T08:40:02.345Z,55.41
2018-02-13T08:42:30.193Z,55.05
2018-02-13T08:44:58.613Z,55.04
2018-02-13T08:47:27.117Z,55.72
2018-02-13T08:49:54.672Z,55.45
2018-02-13T08:52:22.223Z,55.50
2018-02-13T08:54:49.843Z,55.02
2018-02-13T08:57:19.118Z,55.37
2018-02-13T08:59:46.787Z,55.00
2018-02-13T09:02:14.405Z,55.49
2018-02-13T09:04:41.955Z,55.19
2018-02-13T09:07:09.635Z,54.91
2018-02-13T09:09:37.214Z,55.02
2018-02-13T09:12:04.812Z,54.60
2018-02-13T09:14:32.432Z,54.53
2018-02-13T09:17:00.036Z,54.30
2018-02-13T09:19:27.632Z,54.25
2018-02-13T09:21:55.205Z,54.26
2018-02-13T09:24:23.205Z,54.18
2018-02-13T09:26:52.156Z,54.01
2018-02-13T09:29:19.719Z,54.00
2018-02-13T09:31:47.288Z,53.69
2018-02-13T09:34:14.929Z,53.55
2018-02-13T09:36:42.486Z,53.38
2018-02-13T09:39:10.035Z,53.48
2018-02-13T09:41:37.624Z,53.78
2018-02-13T09:44:05.188Z,53.08
2018-02-13T09:46:33.604Z,53.31
2018-02-13T09:49:01.167Z,53.31
2018-02-13T09:51:28.762Z,53.19
2018-02-13T09:53:56.404Z,53.14
2018-02-13T09:56:23.995Z,53.22
2018-02-13T09:58:51.606Z,53.22
2018-02-13T10:01:19.193Z,53.41
2018-02-13T10:03:46.772Z,53.28
2018-02-13T10:06:14.479Z,52.97
2018-02-13T10:08:42.350Z,52.77
2018-02-13T10:11:10.476Z,52.81
2018-02-13T10:13:38.061Z,52.82
2018-02-13T10:16:06.311Z,52.80
2018-02-13T10:18:34.079Z,52.50
2018-02-13T10:21:01.664Z,52.43
2018-02-13T10:23:30.093Z,52.41
2018-02-13T10:25:57.664Z,52.25
2018-02-13T10:28:25.438Z,52.09
2018-02-13T10:30:53.032Z,52.29
2018-02-13T10:33:20.649Z,51.76
2018-02-13T10:35:48.295Z,50.80
2018-02-13T10:38:16.652Z,50.84
2018-02-13T10:40:44.202Z,50.56
2018-02-13T10:43:11.786Z,50.67
2018-02-13T10:45:39.376Z,50.62
2018-02-13T10:48:06.926Z,50.68
2018-02-13T10:50:34.520Z,50.53
2018-02-13T10:53:02.133Z,50.11
2018-02-13T10:55:29.795Z,50.13
2018-02-13T10:57:57.328Z,50.29
2018-02-13T11:00:31.278Z,50.39
2018-02-13T11:03:00.197Z,50.50
2018-02-13T11:05:27.766Z,50.70
2018-02-13T11:07:55.385Z,50.77
2018-02-13T11:10:23.911Z,50.70
2018-02-13T11:12:51.507Z,50.85
2018-02-13T11:15:19.088Z,50.98
2018-02-13T11:17:46.688Z,51.18
2018-02-13T11:20:14.243Z,50.57
2018-02-13T11:22:43.670Z,50.68
2018-02-13T11:25:11.870Z,50.97
2018-02-13T11:27:39.476Z,50.83
2018-02-13T11:30:07.072Z,50.83
2018-02-13T11:32:34.626Z,50.84
2018-02-13T11:35:02.279Z,50.40
2018-02-13T11:37:29.881Z,50.46
2018-02-13T11:39:57.470Z,50.05
2018-02-13T11:42:25.067Z,50.47
2018-02-13T11:44:52.632Z,50.66
2018-02-13T11:47:21.152Z,50.85
2018-02-13T11:49:48.750Z,50.78
2018-02-13T11:52:16.303Z,50.70
2018-02-13T11:54:44.422Z,50.19
2018-02-13T11:57:12.887Z,50.34
2018-02-13T11:59:42.888Z,50.35
2018-02-13T12:02:10.596Z,50.67
2018-02-13T12:04:39.100Z,50.61
2018-02-13T12:07:06.707Z,50.88
2018-02-13T12:09:34.268Z,50.49
2018-02-13T12:12:01.818Z,50.24
2018-02-13T12:14:29.424Z,50.28
2018-02-13T12:16:57.028Z,50.37
2018-02-13T12:19:24.626Z,50.43
2018-02-13T12:21:52.193Z,50.31
2018-02-13T12:24:19.815Z,50.53
2018-02-13T12:26:47.383Z,50.75
2018-02-13T12:29:15.380Z,50.96
2018-02-13T12:31:43.908Z,51.01
2018-02-13T12:34:11.518Z,50.98
2018-02-13T12:36:39.122Z,51.06
2018-02-13T12:39:06.684Z,50.98
2018-02-13T12:41:35.421Z,50.94
2018-02-13T12:44:03.071Z,50.87
2018-02-13T12:46:30.637Z,50.81
2018-02-13T12:48:58.426Z,51.06
2018-02-13T12:51:26.082Z,51.06
2018-02-13T12:53:53.683Z,51.25
2018-02-13T12:56:21.248Z,51.09
2018-02-13T12:58:48.846Z,51.04
2018-02-13T13:01:16.400Z,50.95
2018-02-13T13:03:44.010Z,50.89
2018-02-13T13:06:11.571Z,50.93
2018-02-13T13:08:39.133Z,51.02
2018-02-13T13:11:06.735Z,51.28
2018-02-13T13:13:35.120Z,51.37
2018-02-13T13:16:02.886Z,51.73
2018-02-13T13:18:34.350Z,51.60
2018-02-13T13:21:03.033Z,51.71
2018-02-13T13:23:30.790Z,51.72
2018-02-13T13:25:58.572Z,51.69
2018-02-13T13:28:26.325Z,51.46
2018-02-13T13:30:54.729Z,51.87
2018-02-13T13:33:22.331Z,51.22
2018-02-13T13:35:50.802Z,51.29
2018-02-13T13:38:18.404Z,51.44
2018-02-13T13:40:46.263Z,51.31
2018-02-13T13:43:13.859Z,51.33
2018-02-13T13:45:41.451Z,51.67
2018-02-13T13:48:08.996Z,51.75
2018-02-13T13:50:36.622Z,51.46
2018-02-13T13:53:04.174Z,51.65
2018-02-13T13:55:31.880Z,51.86
2018-02-13T13:58:00.297Z,51.72
2018-02-13T14:00:28.797Z,51.44
2018-02-13T14:02:56.815Z,51.42
2018-02-13T14:05:25.200Z,51.40
2018-02-13T14:07:53.668Z,51.55
2018-02-13T14:10:21.868Z,51.56
2018-02-13T14:12:50.623Z,51.31
2018-02-13T14:15:18.440Z,51.29
2018-02-13T14:17:46.026Z,51.47
2018-02-13T14:20:13.587Z,51.69
2018-02-13T14:22:41.159Z,51.84
2018-02-13T14:25:08.748Z,52.01
2018-02-13T14:27:37.345Z,52.05
2018-02-13T14:30:05.720Z,52.16
2018-02-13T14:32:35.824Z,52.23
2018-02-13T14:35:03.611Z,52.35
2018-02-13T14:37:32.114Z,52.41
2018-02-13T14:39:59.698Z,52.56
2018-02-13T14:42:27.669Z,52.69
2018-02-13T14:44:55.227Z,52.70
2018-02-13T14:47:25.539Z,52.78
2018-02-13T14:49:53.248Z,52.84
2018-02-13T14:52:21.341Z,52.95
2018-02-13T14:54:49.834Z,53.09
2018-02-13T14:57:17.671Z,53.12
2018-02-13T14:59:45.229Z,53.13
2018-02-13T15:02:13.624Z,53.25
2018-02-13T15:04:41.206Z,53.27
2018-02-13T15:07:08.820Z,53.28
2018-02-13T15:09:36.380Z,53.34
2018-02-13T15:12:05.764Z,53.33
2018-02-13T15:14:33.327Z,53.39
2018-02-13T15:17:04.816Z,53.47
2018-02-13T15:19:47.307Z,53.57
2018-02-13T15:22:14.894Z,53.60
2018-02-13T15:24:42.835Z,53.53
2018-02-13T15:27:12.328Z,53.54
2018-02-13T15:29:39.885Z,53.61
2018-02-13T15:32:08.263Z,53.74
2018-02-13T15:34:35.865Z,53.91
2018-02-13T15:37:04.400Z,53.96
2018-02-13T15:39:31.966Z,54.02
2018-02-13T15:42:01.329Z,54.26
2018-02-13T15:44:28.933Z,54.51
2018-02-13T15:47:02.541Z,54.70
2018-02-13T15:49:30.961Z,54.71
2018-02-13T15:51:58.608Z,54.71
2018-02-13T15:54:26.208Z,54.68
2018-02-13T15:56:54.648Z,54.74
2018-02-13T15:59:22.610Z,54.69
2018-02-13T16:01:53.060Z,54.80
2018-02-13T16:04:20.725Z,54.94
2018-02-13T16:06:48.291Z,55.08
2018-02-13T16:09:16.001Z,55.18
2018-02-13T16:11:43.598Z,55.16
2018-02-13T16:14:11.592Z,55.23
2018-02-13T16:16:39.208Z,55.42
2018-02-13T16:19:07.172Z,55.46
2018-02-13T16:21:34.858Z,55.57
2018-02-13T16:24:03.732Z,55.71
2018-02-13T16:26:32.619Z,55.73
2018-02-13T16:29:00.450Z,56.05
2018-02-13T16:31:28.432Z,56.13
2018-02-13T16:33:56.221Z,56.26
2018-02-13T16:36:25.019Z,56.36
2018-02-13T16:38:52.826Z,56.90
2018-02-13T16:41:20.386Z,57.25
2018-02-13T16:43:49.574Z,57.17
2018-02-13T16:46:17.902Z,56.99
2018-02-13T16:48:45.458Z,56.95
2018-02-13T16:51:13.055Z,56.93
2018-02-13T16:53:40.651Z,56.89
2018-02-13T16:56:08.620Z,56.84
2018-02-13T16:58:36.185Z,56.78
2018-02-13T17:01:04.774Z,56.72
2018-02-13T17:03:32.384Z,56.61
2018-02-13T17:05:59.941Z,56.90
2018-02-13T17:08:27.568Z,57.11
2018-02-13T17:10:55.116Z,57.25
2018-02-13T17:13:22.722Z,57.44
2018-02-13T17:15:50.329Z,57.55
2018-02-13T17:18:19.711Z,58.77
2018-02-13T17:20:47.312Z,58.81
2018-02-13T17:23:15.205Z,58.52
2018-02-13T17:25:43.276Z,58.38
2018-02-13T17:28:11.813Z,58.07
2018-02-13T17:30:39.862Z,58.06
2018-02-13T17:33:07.654Z,57.88
2018-02-13T17:35:35.252Z,58.02
2018-02-13T17:38:03.690Z,58.06
2018-02-13T17:40:31.616Z,57.94
2018-02-13T17:42:59.999Z,57.82
2018-02-13T17:45:28.440Z,57.97
2018-02-13T17:47:56.218Z,58.29
2018-02-13T17:50:24.454Z,58.30
2018-02-13T17:52:52.019Z,58.28
2018-02-13T17:55:19.984Z,59.38
2018-02-13T17:57:50.655Z,60.01
2018-02-13T18:00:19.754Z,59.90
2018-02-13T18:02:48.576Z,60.25
2018-02-13T18:05:16.129Z,60.61
2018-02-13T18:07:44.534Z,60.66
2018-02-13T18:10:12.890Z,60.37
2018-02-13T18:12:40.435Z,61.12
2018-02-13T18:15:08.367Z,61.02
2018-02-13T18:17:37.666Z,60.94
2018-02-13T18:20:07.072Z,60.78
2018-02-13T18:22:34.623Z,60.94
2018-02-13T18:25:02.936Z,61.07
2018-02-13T18:27:31.464Z,60.96
2018-02-13T18:29:59.708Z,60.61
2018-02-13T18:32:27.691Z,60.34
2018-02-13T18:34:56.253Z,60.93
2018-02-13T18:37:25.289Z,61.89
2018-02-13T18:39:53.237Z,62.28
2018-02-13T18:42:20.826Z,62.20
2018-02-13T18:44:48.688Z,61.97
2018-02-13T18:47:17.220Z,62.51
2018-02-13T18:49:45.658Z,62.53
2018-02-13T18:54:41.767Z,62.58
2018-02-13T18:57:11.115Z,62.46
2018-02-13T18:59:38.722Z,62.10
2018-02-13T19:02:06.292Z,61.88
2018-02-13T19:04:34.679Z,61.90
2018-02-13T19:07:03.067Z,61.92
2018-02-13T19:09:31.445Z,61.73
2018-02-13T19:11:59.985Z,61.82
2018-02-13T19:14:30.033Z,62.72
2018-02-13T19:19:27.902Z,63.40
2018-02-13T19:21:55.506Z,63.43
2018-02-13T19:24:23.559Z,64.79
2018-02-13T19:26:51.157Z,65.27
2018-02-13T19:29:18.764Z,64.60
2018-02-13T19:31:46.319Z,64.12
2018-02-13T19:34:14.955Z,63.70
2018-02-13T19:36:45.037Z,63.29
2018-02-13T19:39:14.442Z,63.95
2018-02-13T19:41:43.000Z,63.42
2018-02-13T19:44:10.613Z,63.60
2018-02-13T19:46:38.580Z,66.22
2018-02-13T19:49:06.627Z,68.39
2018-02-13T19:51:34.941Z,69.33
2018-02-13T19:54:02.811Z,69.29
2018-02-13T19:56:30.412Z,68.12
2018-02-13T19:58:59.004Z,66.90
2018-02-13T20:01:27.687Z,65.98
2018-02-13T20:03:56.138Z,65.54
2018-02-13T20:06:24.295Z,64.97
2018-02-13T20:08:54.517Z,64.67
2018-02-13T20:11:25.533Z,64.52
2018-02-13T20:13:53.423Z,65.04
2018-02-13T20:16:21.018Z,64.81
2018-02-13T20:18:49.379Z,65.24
2018-02-13T20:21:17.140Z,67.49
2018-02-13T20:23:45.663Z,67.87
2018-02-13T20:26:16.083Z,68.48
2018-02-13T20:28:43.677Z,68.54
2018-02-13T20:31:11.260Z,67.44
2018-02-13T20:33:38.821Z,67.06
2018-02-13T20:36:06.451Z,69.01
2018-02-13T20:38:34.252Z,70.55
2018-02-13T20:41:03.728Z,71.28
2018-02-13T20:43:31.328Z,70.31
2018-02-13T20:45:59.688Z,68.75
2018-02-13T20:48:28.872Z,67.87
2018-02-13T20:50:56.671Z,67.60
2018-02-13T20:53:24.247Z,66.85
2018-02-13T20:55:51.839Z,66.51
2018-02-13T20:58:19.395Z,66.32
2018-02-13T21:00:46.988Z,65.58
2018-02-13T21:03:14.712Z,65.23
2018-02-13T21:05:42.308Z,64.88
2018-02-13T21:08:09.906Z,64.66
2018-02-13T21:10:39.126Z,65.23
2018-02-13T21:13:07.533Z,66.96
2018-02-13T21:15:35.413Z,68.06
2018-02-13T21:18:03.049Z,69.58
2018-02-13T21:20:30.872Z,68.52
2018-02-13T21:22:59.152Z,67.35
2018-02-13T21:25:27.123Z,66.72
2018-02-13T21:27:54.674Z,66.12
2018-02-13T21:30:22.705Z,65.65
2018-02-13T21:32:50.914Z,65.34
2018-02-13T21:35:18.541Z,65.38
2018-02-13T21:37:46.096Z,65.36
2018-02-13T21:40:13.710Z,66.00
2018-02-13T21:42:41.280Z,65.87
2018-02-13T21:45:08.840Z,65.59
2018-02-13T21:47:36.708Z,65.42
2018-02-13T21:50:04.652Z,66.16
2018-02-13T21:52:32.316Z,66.00
2018-02-13T21:55:00.516Z,65.36
2018-02-13T21:57:28.868Z,65.04
2018-02-13T21:59:57.273Z,64.65
2018-02-13T22:02:25.091Z,65.05
2018-02-13T22:04:52.772Z,64.85
2018-02-13T22:07:20.346Z,64.52
2018-02-13T22:09:48.308Z,65.13
2018-02-13T22:12:15.891Z,65.26
2018-02-13T22:14:43.884Z,65.40
2018-02-13T22:17:11.487Z,65.79
2018-02-13T22:19:39.347Z,65.87
2018-02-13T22:22:06.897Z,65.55
2018-02-13T22:24:34.501Z,65.29
2018-02-13T22:27:02.628Z,67.05
2018-02-13T22:29:30.371Z,68.04
2018-02-13T22:31:58.162Z,68.00
2018-02-13T22:34:25.756Z,67.78
2018-02-13T22:36:54.044Z,67.70
2018-02-13T22:39:21.638Z,67.02
2018-02-13T22:41:49.229Z,66.96
2018-02-13T22:44:17.439Z,66.11
2018-02-13T22:46:45.043Z,66.27
2018-02-13T22:49:12.922Z,67.05
2018-02-13T22:51:42.024Z,66.48
2018-02-13T22:54:09.632Z,66.35
2018-02-13T22:56:37.837Z,66.86
2018-02-13T22:59:05.392Z,67.92
2018-02-13T23:01:34.714Z,69.50
2018-02-13T23:04:02.304Z,70.20
2018-02-13T23:06:29.862Z,69.62
2018-02-13T23:08:57.455Z,68.60
2018-02-13T23:11:25.695Z,67.46
2018-02-13T23:13:53.234Z,68.04
2018-02-13T23:16:20.815Z,69.13
2018-02-13T23:18:48.363Z,68.69
2018-02-13T23:21:15.956Z,68.30
2018-02-13T23:23:43.552Z,67.84
2018-02-13T23:26:11.148Z,68.28
2018-02-13T23:28:39.503Z,68.08
2018-02-13T23:31:07.052Z,67.30
2018-02-13T23:33:34.638Z,66.76
2018-02-13T23:36:02.239Z,68.25
2018-02-13T23:38:30.136Z,67.60
2018-02-13T23:40:58.014Z,67.26
2018-02-13T23:43:25.602Z,67.72
2018-02-13T23:45:53.681Z,68.48
2018-02-13T23:48:21.275Z,69.03
2018-02-13T23:50:48.831Z,68.62
2018-02-13T23:53:16.953Z,67.70
2018-02-13T23:55:44.499Z,66.91
2018-02-13T23:58:12.095Z,66.44
